Time;durP1;ratioP1;P1;durP2;ratioP2;P2;SDS_P1;SDS_P2;PMS_P1;PMS_P2;Temp;Humidity;BMP_temperature;BMP_pressure;BME280_temperature;BME280_humidity;BME280_pressure;Samples;Min_cycle;Max_cycle;Signal;HPM_P1;HPM_P2
2022/11/15 00:01:23;;;;;;;;;;;12.40;99.90;;;;;;5073376;28;19995;-24
2022/11/15 00:03:50;;;;;;;;;;;12.40;99.90;;;;;;5055006;28;19954;-24
2022/11/15 00:06:16;;;;;;;;;;;12.40;99.90;;;;;;5055171;28;19908;-23
2022/11/15 00:08:41;;;;;;;;;;;12.40;99.90;;;;;;5072269;28;19909;-25
2022/11/15 00:11:09;;;;;;;;;;;12.40;99.90;;;;;;5072560;28;19962;-24
2022/11/15 00:13:35;;;;;;;;;;;12.40;99.90;;;;;;5072926;28;19974;-32
2022/11/15 00:16:00;;;;;;;;;;;12.40;99.90;;;;;;5072922;28;20267;-23
2022/11/15 00:18:26;;;;;;;;;;;12.40;99.90;;;;;;5072125;28;19922;-24
2022/11/15 00:20:52;;;;;;;;;;;12.40;99.90;;;;;;5072396;28;19941;-23
2022/11/15 00:23:17;;;;;;;;;;;12.40;99.90;;;;;;5072532;28;19908;-24
2022/11/15 00:25:43;;;;;;;;;;;12.40;99.90;;;;;;5072310;28;20282;-24
2022/11/15 00:28:08;;;;;;;;;;;12.40;99.90;;;;;;5071779;28;19952;-25
2022/11/15 00:30:34;;;;;;;;;;;12.40;99.90;;;;;;5072600;28;19913;-31
2022/11/15 00:33:04;;;;;;;;;;;12.40;99.90;;;;;;5071995;28;20003;-26
2022/11/15 00:35:31;;;;;;;;;;;12.40;99.90;;;;;;5072309;28;20464;-23
2022/11/15 00:37:57;;;;;;;;;;;12.40;99.90;;;;;;5053829;28;20266;-25
2022/11/15 00:40:23;;;;;;;;;;;12.40;99.90;;;;;;5071758;28;19916;-21
2022/11/15 00:42:48;;;;;;;;;;;12.40;99.90;;;;;;5071827;28;19908;-28
2022/11/15 00:45:14;;;;;;;;;;;12.40;99.90;;;;;;5054240;28;19909;-24
2022/11/15 00:47:39;;;;;;;;;;;12.40;99.90;;;;;;5071736;28;20640;-22
2022/11/15 00:50:05;;;;;;;;;;;12.40;99.90;;;;;;5071647;28;19916;-28
2022/11/15 00:52:30;;;;;;;;;;;12.40;99.90;;;;;;5071946;28;19916;-23
2022/11/15 00:54:56;;;;;;;;;;;12.40;99.90;;;;;;5071908;28;19923;-23
2022/11/15 00:57:22;;;;;;;;;;;12.40;99.90;;;;;;5037291;28;20302;-23
2022/11/15 00:59:47;;;;;;;;;;;12.40;99.90;;;;;;5071521;28;19912;-24
2022/11/15 01:02:13;;;;;;;;;;;12.40;99.90;;;;;;5071744;28;20293;-24
2022/11/15 01:04:39;;;;;;;;;;;12.40;99.90;;;;;;5072099;28;19920;-29
2022/11/15 01:07:04;;;;;;;;;;;12.40;99.90;;;;;;5072246;28;19934;-29
2022/11/15 01:09:30;;;;;;;;;;;12.40;99.90;;;;;;5071232;28;19915;-29
2022/11/15 01:11:55;;;;;;;;;;;12.30;99.90;;;;;;5071891;28;19916;-24
2022/11/15 01:14:21;;;;;;;;;;;12.30;99.90;;;;;;5071950;28;20007;-24
2022/11/15 01:16:46;;;;;;;;;;;12.30;99.90;;;;;;5072155;28;19908;-29
2022/11/15 01:19:11;;;;;;;;;;;12.30;99.90;;;;;;5071107;28;19908;-21
2022/11/15 01:21:37;;;;;;;;;;;12.30;99.90;;;;;;5071485;28;20293;-24
2022/11/15 01:24:03;;;;;;;;;;;12.30;99.90;;;;;;5071903;28;20054;-23
2022/11/15 01:26:28;;;;;;;;;;;12.30;99.90;;;;;;5072028;28;19912;-24
2022/11/15 01:28:54;;;;;;;;;;;12.30;99.90;;;;;;5071243;28;19994;-22
2022/11/15 01:31:20;;;;;;;;;;;12.30;99.90;;;;;;5071687;28;19916;-24
2022/11/15 01:33:46;;;;;;;;;;;12.30;99.90;;;;;;5071650;28;19936;-22
2022/11/15 01:36:13;;;;;;;;;;;12.40;99.90;;;;;;5071697;28;19912;-28
2022/11/15 01:38:39;;;;;;;;;;;12.30;99.90;;;;;;5071118;28;19909;-23
2022/11/15 01:41:04;;;;;;;;;;;12.30;99.90;;;;;;5071684;28;20297;-28
2022/11/15 01:43:31;;;;;;;;;;;12.30;99.90;;;;;;5071496;28;19961;-24
2022/11/15 01:46:00;;;;;;;;;;;12.30;99.90;;;;;;5071508;28;20443;-31
2022/11/15 01:48:28;;;;;;;;;;;12.30;99.90;;;;;;5071417;28;19918;-27
2022/11/15 01:50:54;;;;;;;;;;;12.30;99.90;;;;;;5071697;28;19996;-24
2022/11/15 01:53:21;;;;;;;;;;;12.30;99.90;;;;;;5072532;28;20018;-28
2022/11/15 01:55:46;;;;;;;;;;;12.30;99.90;;;;;;5075693;28;19935;-25
2022/11/15 01:58:12;;;;;;;;;;;12.30;99.90;;;;;;5075662;28;20425;-24
2022/11/15 02:00:38;;;;;;;;;;;12.30;99.90;;;;;;5057793;28;19908;-31
2022/11/15 02:03:04;;;;;;;;;;;12.30;99.90;;;;;;5075238;28;19931;-22
2022/11/15 02:05:30;;;;;;;;;;;12.30;99.90;;;;;;5057662;28;19991;-27
2022/11/15 02:07:56;;;;;;;;;;;12.30;99.90;;;;;;5075097;28;19916;-24
2022/11/15 02:10:22;;;;;;;;;;;12.30;99.90;;;;;;5075034;28;19916;-25
2022/11/15 02:12:49;;;;;;;;;;;12.30;99.90;;;;;;5075071;28;19968;-24
2022/11/15 02:15:15;;;;;;;;;;;12.30;99.90;;;;;;5075177;28;20301;-28
2022/11/15 02:17:40;;;;;;;;;;;12.40;99.90;;;;;;5075470;28;19908;-24
2022/11/15 02:20:24;;;;;;;;;;;12.30;99.90;;;;;;5075015;28;19920;-25
2022/11/15 02:23:00;;;;;;;;;;;12.30;99.90;;;;;;5075762;28;19909;-25
2022/11/15 02:25:40;;;;;;;;;;;12.30;99.90;;;;;;5075443;28;20366;-22
2022/11/15 02:28:15;;;;;;;;;;;12.30;99.90;;;;;;5074582;28;19912;-23
2022/11/15 02:30:46;;;;;;;;;;;12.30;99.90;;;;;;5074969;28;19915;-25
2022/11/15 02:33:23;;;;;;;;;;;12.30;99.90;;;;;;5075052;28;19923;-24
2022/11/15 02:36:05;;;;;;;;;;;12.30;99.90;;;;;;5075072;28;19916;-22
2022/11/15 02:38:49;;;;;;;;;;;12.30;99.90;;;;;;5074967;28;19987;-23
2022/11/15 02:41:18;;;;;;;;;;;12.30;99.90;;;;;;5074792;28;19970;-23
2022/11/15 02:43:58;;;;;;;;;;;12.30;99.90;;;;;;5074917;28;19916;-23
2022/11/15 02:49:23;;;;;;;;;;;12.30;99.90;;;;;;5074360;28;19938;-24
2022/11/15 02:51:50;;;;;;;;;;;12.20;99.90;;;;;;5056690;28;19912;-28
2022/11/15 02:54:25;;;;;;;;;;;12.30;99.90;;;;;;5074771;28;19962;-30
2022/11/15 02:56:56;;;;;;;;;;;12.30;99.90;;;;;;5074664;28;19931;-23
2022/11/15 02:59:40;;;;;;;;;;;12.30;99.90;;;;;;5073766;28;19938;-25
2022/11/15 03:02:17;;;;;;;;;;;12.30;99.90;;;;;;5074448;28;20350;-28
2022/11/15 03:04:53;;;;;;;;;;;12.30;99.90;;;;;;5074067;28;19990;-23
2022/11/15 03:07:25;;;;;;;;;;;12.30;99.90;;;;;;5074508;28;20338;-21
2022/11/15 03:09:54;;;;;;;;;;;12.30;99.90;;;;;;5073956;28;19908;-23
2022/11/15 03:12:20;;;;;;;;;;;12.30;99.90;;;;;;5073915;28;19923;-24
2022/11/15 03:14:51;;;;;;;;;;;12.30;99.90;;;;;;5073984;28;20360;-23
2022/11/15 03:17:23;;;;;;;;;;;12.30;99.90;;;;;;5074191;28;19915;-24
2022/11/15 03:19:53;;;;;;;;;;;12.30;99.90;;;;;;5074086;28;20318;-34
2022/11/15 03:22:22;;;;;;;;;;;12.30;99.90;;;;;;5074068;28;19909;-24
2022/11/15 03:24:51;;;;;;;;;;;12.30;99.90;;;;;;5074901;28;19912;-23
2022/11/15 03:27:20;;;;;;;;;;;12.30;99.90;;;;;;5074008;28;19915;-30
2022/11/15 03:29:51;;;;;;;;;;;12.30;99.90;;;;;;5073301;28;19916;-24
2022/11/15 03:32:20;;;;;;;;;;;12.30;99.90;;;;;;5073496;28;20282;-23
2022/11/15 03:34:52;;;;;;;;;;;12.30;99.90;;;;;;5073953;28;19959;-24
2022/11/15 03:37:20;;;;;;;;;;;12.30;99.90;;;;;;5073794;28;19909;-24
2022/11/15 03:39:45;;;;;;;;;;;12.30;99.90;;;;;;5073753;28;19909;-26
2022/11/15 03:42:17;;;;;;;;;;;12.30;99.90;;;;;;5073562;28;20384;-24
2022/11/15 03:44:46;;;;;;;;;;;12.20;99.90;;;;;;5073877;28;20006;-23
2022/11/15 03:47:17;;;;;;;;;;;12.30;99.90;;;;;;5073744;28;19912;-22
2022/11/15 03:49:45;;;;;;;;;;;12.30;99.90;;;;;;5073240;28;19920;-23
2022/11/15 03:52:11;;;;;;;;;;;12.30;99.90;;;;;;5073361;28;19919;-27
2022/11/15 03:54:37;;;;;;;;;;;12.30;99.90;;;;;;5055503;28;19916;-25
2022/11/15 03:57:02;;;;;;;;;;;12.30;99.90;;;;;;5073432;28;19956;-24
2022/11/15 03:59:28;;;;;;;;;;;12.30;99.90;;;;;;5072836;28;19912;-29
2022/11/15 04:01:53;;;;;;;;;;;12.20;99.90;;;;;;5073253;28;20286;-23
2022/11/15 04:04:19;;;;;;;;;;;12.20;99.90;;;;;;5055409;28;19920;-24
2022/11/15 04:06:44;;;;;;;;;;;12.30;99.90;;;;;;5073040;28;19908;-23
2022/11/15 04:09:10;;;;;;;;;;;12.20;99.90;;;;;;5072490;28;19908;-23
2022/11/15 04:11:35;;;;;;;;;;;12.30;99.90;;;;;;5072915;28;19921;-25
2022/11/15 04:14:01;;;;;;;;;;;12.30;99.90;;;;;;5072662;28;19913;-24
2022/11/15 04:16:27;;;;;;;;;;;12.30;99.90;;;;;;5072248;28;19967;-24
2022/11/15 04:24:22;;;;;;;;;;;12.30;99.90;;;;;;5074006;28;20270;-25
2022/11/15 04:26:47;;;;;;;;;;;12.20;99.90;;;;;;5073084;28;19913;-23
2022/11/15 04:31:57;;;;;;;;;;;12.20;99.90;;;;;;5072851;28;19923;-24
2022/11/15 04:34:22;;;;;;;;;;;12.20;99.90;;;;;;5072860;28;19909;-25
2022/11/15 04:39:32;;;;;;;;;;;12.20;99.90;;;;;;5072092;28;20423;-21
2022/11/15 04:41:58;;;;;;;;;;;12.20;99.90;;;;;;5072129;28;19920;-22
2022/11/15 04:44:23;;;;;;;;;;;12.20;99.90;;;;;;5072592;28;19908;-25
2022/11/15 04:46:49;;;;;;;;;;;12.20;99.90;;;;;;5072286;28;19966;-24
2022/11/15 04:49:14;;;;;;;;;;;12.20;99.90;;;;;;5072615;28;19935;-24
2022/11/15 04:51:40;;;;;;;;;;;12.20;99.90;;;;;;5072009;28;19963;-25
2022/11/15 04:54:05;;;;;;;;;;;12.20;99.90;;;;;;5072241;28;19909;-22
2022/11/15 04:56:31;;;;;;;;;;;12.20;99.90;;;;;;5072375;28;19915;-22
2022/11/15 04:58:57;;;;;;;;;;;12.20;99.90;;;;;;5071727;28;19943;-24
2022/11/15 05:01:22;;;;;;;;;;;12.20;99.90;;;;;;5072646;28;20342;-22
2022/11/15 05:06:32;;;;;;;;;;;12.20;99.90;;;;;;5072559;28;19943;-28
2022/11/15 05:08:57;;;;;;;;;;;12.20;99.90;;;;;;5071849;28;20310;-21
2022/11/15 05:11:23;;;;;;;;;;;12.20;99.90;;;;;;5071889;28;20295;-24
2022/11/15 05:13:49;;;;;;;;;;;12.20;99.90;;;;;;5072809;28;19974;-23
2022/11/15 05:16:14;;;;;;;;;;;12.20;99.90;;;;;;5072900;28;19908;-24
2022/11/15 05:18:40;;;;;;;;;;;12.20;99.90;;;;;;5072053;28;19987;-24
2022/11/15 05:21:13;;;;;;;;;;;12.20;99.90;;;;;;5071911;28;20011;-31
2022/11/15 05:23:39;;;;;;;;;;;12.20;99.90;;;;;;5072129;28;19908;-28
2022/11/15 05:26:06;;;;;;;;;;;12.20;99.90;;;;;;5072520;28;20424;-24
2022/11/15 05:28:32;;;;;;;;;;;12.20;99.90;;;;;;5071646;28;19912;-28
2022/11/15 05:31:01;;;;;;;;;;;12.20;99.90;;;;;;5071605;28;19912;-24
2022/11/15 05:33:26;;;;;;;;;;;12.20;99.90;;;;;;5072296;28;19912;-27
2022/11/15 05:35:56;;;;;;;;;;;12.20;99.90;;;;;;5071747;28;19982;-26
2022/11/15 05:38:23;;;;;;;;;;;12.20;99.90;;;;;;5071298;28;19981;-25
2022/11/15 05:40:48;;;;;;;;;;;12.20;99.90;;;;;;5072059;28;19909;-28
2022/11/15 05:43:14;;;;;;;;;;;12.20;99.90;;;;;;5071779;28;19912;-22
2022/11/15 05:45:39;;;;;;;;;;;12.20;99.90;;;;;;5072167;28;19934;-21
2022/11/15 05:48:06;;;;;;;;;;;12.20;99.90;;;;;;5071319;28;19912;-22
2022/11/15 05:50:32;;;;;;;;;;;12.20;99.90;;;;;;5071646;28;19909;-22
2022/11/15 05:52:58;;;;;;;;;;;12.20;99.90;;;;;;5071414;28;20370;-22
2022/11/15 05:55:24;;;;;;;;;;;12.20;99.90;;;;;;5071533;28;20298;-24
2022/11/15 05:57:49;;;;;;;;;;;12.20;99.90;;;;;;5071123;28;19983;-25
2022/11/15 06:00:15;;;;;;;;;;;12.20;99.90;;;;;;5071043;28;19909;-28
2022/11/15 06:02:41;;;;;;;;;;;12.20;99.90;;;;;;5053477;28;19919;-24
2022/11/15 06:05:06;;;;;;;;;;;12.20;99.90;;;;;;5071285;28;19916;-26
2022/11/15 06:07:32;;;;;;;;;;;12.20;99.90;;;;;;5071278;28;19915;-23
2022/11/15 06:09:57;;;;;;;;;;;12.20;99.90;;;;;;5071002;28;19908;-24
2022/11/15 06:12:23;;;;;;;;;;;12.20;99.90;;;;;;5071040;28;19952;-27
2022/11/15 06:14:49;;;;;;;;;;;12.10;99.90;;;;;;5071679;28;19909;-22
2022/11/15 06:17:14;;;;;;;;;;;12.20;99.90;;;;;;5052958;28;20373;-23
2022/11/15 06:19:40;;;;;;;;;;;12.20;99.90;;;;;;5071145;28;19913;-24
2022/11/15 06:22:05;;;;;;;;;;;12.10;99.90;;;;;;5071231;28;20003;-24
2022/11/15 06:24:31;;;;;;;;;;;12.10;99.90;;;;;;5071757;28;19912;-30
2022/11/15 06:26:57;;;;;;;;;;;12.10;99.90;;;;;;5071165;28;20285;-21
2022/11/15 06:29:22;;;;;;;;;;;12.10;99.90;;;;;;5070394;28;20324;-29
2022/11/15 06:31:48;;;;;;;;;;;12.10;99.90;;;;;;5070929;28;19920;-26
2022/11/15 06:34:13;;;;;;;;;;;12.10;99.90;;;;;;5071390;28;19908;-27
2022/11/15 06:36:39;;;;;;;;;;;12.20;99.90;;;;;;5071238;28;20350;-24
2022/11/15 06:39:05;;;;;;;;;;;12.10;99.90;;;;;;5071594;28;19908;-24
2022/11/15 06:41:33;;;;;;;;;;;12.20;99.90;;;;;;5075028;28;19913;-24
2022/11/15 06:43:58;;;;;;;;;;;12.20;99.90;;;;;;5056957;28;19915;-25
2022/11/15 06:46:24;;;;;;;;;;;12.10;99.90;;;;;;5074818;28;19908;-23
2022/11/15 06:48:53;;;;;;;;;;;12.20;99.90;;;;;;5075173;28;19909;-31
2022/11/15 06:51:19;;;;;;;;;;;12.10;99.90;;;;;;5056820;28;19908;-27
2022/11/15 06:53:44;;;;;;;;;;;12.10;99.90;;;;;;5075350;28;20011;-22
2022/11/15 06:56:10;;;;;;;;;;;12.10;99.90;;;;;;5075727;28;20209;-29
2022/11/15 06:58:36;;;;;;;;;;;12.10;99.90;;;;;;5074655;28;19908;-24
2022/11/15 07:01:04;;;;;;;;;;;12.10;99.90;;;;;;5074881;28;20003;-24
2022/11/15 07:03:29;;;;;;;;;;;12.10;99.90;;;;;;5057282;28;19935;-32
2022/11/15 07:05:56;;;;;;;;;;;12.10;99.90;;;;;;5074821;28;19912;-28
2022/11/15 07:08:23;;;;;;;;;;;12.10;99.90;;;;;;5074630;28;20485;-21
2022/11/15 07:10:48;;;;;;;;;;;12.10;99.90;;;;;;5074967;28;19979;-24
2022/11/15 07:13:14;;;;;;;;;;;12.10;99.90;;;;;;5075241;28;19934;-25
2022/11/15 07:15:39;;;;;;;;;;;12.10;99.90;;;;;;5075168;28;19908;-24
2022/11/15 07:18:05;;;;;;;;;;;12.10;99.90;;;;;;5074883;28;19947;-23
2022/11/15 07:20:30;;;;;;;;;;;12.10;99.90;;;;;;5073974;28;19909;-21
2022/11/15 07:23:03;;;;;;;;;;;12.10;99.90;;;;;;5074848;28;19997;-22
2022/11/15 07:25:29;;;;;;;;;;;12.10;99.90;;;;;;5074226;28;20269;-24
2022/11/15 07:27:58;;;;;;;;;;;12.10;99.90;;;;;;5074808;28;19920;-23
2022/11/15 07:30:24;;;;;;;;;;;12.10;99.90;;;;;;5074092;28;20154;-24
2022/11/15 07:33:07;;;;;;;;;;;12.10;99.90;;;;;;5073862;28;19916;-23
2022/11/15 07:35:33;;;;;;;;;;;12.10;99.90;;;;;;5074326;28;19915;-21
2022/11/15 07:38:00;;;;;;;;;;;12.10;99.90;;;;;;5055481;28;19966;-29
2022/11/15 07:40:26;;;;;;;;;;;12.10;99.90;;;;;;5075197;28;20282;-21
2022/11/15 07:42:55;;;;;;;;;;;12.10;99.90;;;;;;5073963;28;19908;-25
2022/11/15 07:45:22;;;;;;;;;;;12.10;99.90;;;;;;5074818;28;19943;-22
2022/11/15 07:47:51;;;;;;;;;;;12.10;99.90;;;;;;5056269;28;19909;-25
2022/11/15 07:50:16;;;;;;;;;;;12.10;99.90;;;;;;5073483;28;19912;-24
2022/11/15 07:52:42;;;;;;;;;;;12.10;99.90;;;;;;5073445;28;19912;-21
2022/11/15 07:55:08;;;;;;;;;;;12.10;99.90;;;;;;5073943;28;19908;-26
2022/11/15 07:57:33;;;;;;;;;;;12.10;99.90;;;;;;5073528;28;19915;-24
2022/11/15 07:59:59;;;;;;;;;;;12.20;99.90;;;;;;5074189;28;19915;-27
2022/11/15 08:02:24;;;;;;;;;;;12.20;99.90;;;;;;5075128;28;20150;-30
2022/11/15 08:04:50;;;;;;;;;;;12.20;99.90;;;;;;5073904;28;19923;-30
2022/11/15 08:07:15;;;;;;;;;;;12.20;99.90;;;;;;5054859;28;19919;-23
2022/11/15 08:09:41;;;;;;;;;;;12.20;99.90;;;;;;5073773;28;19909;-23
2022/11/15 08:12:07;;;;;;;;;;;12.20;99.90;;;;;;5073965;28;20011;-27
2022/11/15 08:14:32;;;;;;;;;;;12.30;99.90;;;;;;5073590;28;19908;-23
2022/11/15 08:16:58;;;;;;;;;;;12.30;99.90;;;;;;5073713;28;19959;-23
2022/11/15 08:19:23;;;;;;;;;;;12.40;99.90;;;;;;5073193;28;20004;-24
2022/11/15 08:21:49;;;;;;;;;;;12.40;99.90;;;;;;5074706;28;19909;-24
2022/11/15 08:24:15;;;;;;;;;;;12.40;99.90;;;;;;5075382;28;19909;-25
2022/11/15 08:26:40;;;;;;;;;;;12.40;99.90;;;;;;5073497;28;19909;-27
2022/11/15 08:29:09;;;;;;;;;;;12.40;99.90;;;;;;5073663;28;19967;-27
2022/11/15 08:31:36;;;;;;;;;;;12.40;99.90;;;;;;5055489;28;20285;-23
2022/11/15 08:34:02;;;;;;;;;;;12.50;99.90;;;;;;5073035;28;19908;-23
2022/11/15 08:36:28;;;;;;;;;;;12.50;99.90;;;;;;5073429;28;19912;-23
2022/11/15 08:38:53;;;;;;;;;;;12.50;99.90;;;;;;5073069;28;19916;-29
2022/11/15 08:41:30;;;;;;;;;;;12.50;99.90;;;;;;5072699;28;20293;-30
2022/11/15 08:43:56;;;;;;;;;;;12.50;99.90;;;;;;5072361;28;19909;-23
2022/11/15 08:46:22;;;;;;;;;;;12.40;99.90;;;;;;5072921;28;20251;-24
2022/11/15 08:48:47;;;;;;;;;;;12.30;99.90;;;;;;5072465;28;20282;-23
2022/11/15 08:51:13;;;;;;;;;;;12.30;99.90;;;;;;5072900;28;20001;-24
2022/11/15 08:53:38;;;;;;;;;;;12.30;99.90;;;;;;5073939;28;20033;-28
2022/11/15 08:56:07;;;;;;;;;;;12.40;99.90;;;;;;5073327;28;19915;-28
2022/11/15 08:58:33;;;;;;;;;;;12.40;99.90;;;;;;5054179;28;20346;-21
2022/11/15 09:00:58;;;;;;;;;;;12.50;99.90;;;;;;5071978;28;20358;-23
2022/11/15 09:03:24;;;;;;;;;;;12.40;99.90;;;;;;5072356;28;19970;-24
2022/11/15 09:05:54;;;;;;;;;;;12.40;99.90;;;;;;5072853;28;19908;-22
2022/11/15 09:08:19;;;;;;;;;;;12.40;99.90;;;;;;5072016;28;19919;-23
2022/11/15 09:10:46;;;;;;;;;;;12.40;99.90;;;;;;5072374;28;20293;-23
2022/11/15 09:13:12;;;;;;;;;;;12.40;99.90;;;;;;5073354;28;20020;-22
2022/11/15 09:15:38;;;;;;;;;;;12.40;99.90;;;;;;5072107;28;19912;-24
2022/11/15 09:18:03;;;;;;;;;;;12.40;99.90;;;;;;5071618;28;19912;-23
2022/11/15 09:20:29;;;;;;;;;;;12.40;99.90;;;;;;5073293;28;19908;-25
2022/11/15 09:22:55;;;;;;;;;;;12.40;99.90;;;;;;5072127;28;19920;-24
2022/11/15 09:25:20;;;;;;;;;;;12.40;99.90;;;;;;5073837;28;19913;-26
2022/11/15 09:27:46;;;;;;;;;;;12.50;99.90;;;;;;5072379;28;20386;-20
2022/11/15 09:30:13;;;;;;;;;;;12.50;99.90;;;;;;5072309;28;19993;-23
2022/11/15 09:32:39;;;;;;;;;;;12.50;99.90;;;;;;5055035;28;19942;-24
2022/11/15 09:35:04;;;;;;;;;;;12.50;99.90;;;;;;5073274;28;20289;-31
2022/11/15 09:37:31;;;;;;;;;;;12.50;99.90;;;;;;5072551;28;20263;-21
2022/11/15 09:39:56;;;;;;;;;;;12.50;99.90;;;;;;5072678;28;19912;-26
2022/11/15 09:42:25;;;;;;;;;;;12.50;99.90;;;;;;5072069;28;19941;-23
2022/11/15 09:44:54;;;;;;;;;;;12.50;99.90;;;;;;5072297;28;20007;-24
2022/11/15 09:47:31;;;;;;;;;;;12.50;99.90;;;;;;5072579;28;19908;-26
2022/11/15 09:49:59;;;;;;;;;;;12.50;99.90;;;;;;5072966;28;19916;-21
2022/11/15 09:52:24;;;;;;;;;;;12.50;99.90;;;;;;5073228;28;19912;-24
2022/11/15 09:54:51;;;;;;;;;;;12.50;99.90;;;;;;5073092;28;19915;-26
2022/11/15 09:57:30;;;;;;;;;;;12.50;99.90;;;;;;5072037;28;19923;-25
2022/11/15 09:59:59;;;;;;;;;;;12.50;99.90;;;;;;5071789;28;19990;-26
2022/11/15 10:02:43;;;;;;;;;;;12.50;99.90;;;;;;5072045;28;19912;-23
2022/11/15 10:05:11;;;;;;;;;;;12.40;99.90;;;;;;5072260;28;19982;-23
2022/11/15 10:07:45;;;;;;;;;;;12.40;99.90;;;;;;5072060;28;19912;-28
2022/11/15 10:10:11;;;;;;;;;;;12.40;99.90;;;;;;5071474;28;20365;-27
2022/11/15 10:12:37;;;;;;;;;;;12.40;99.90;;;;;;5071345;28;19922;-27
2022/11/15 10:15:05;;;;;;;;;;;12.40;99.90;;;;;;5074256;28;19908;-23
2022/11/15 10:17:34;;;;;;;;;;;12.40;99.90;;;;;;5075839;28;19915;-26
2022/11/15 10:20:09;;;;;;;;;;;12.50;99.90;;;;;;5075380;28;19913;-23
2022/11/15 10:22:48;;;;;;;;;;;12.50;99.90;;;;;;5076482;28;19909;-23
2022/11/15 10:25:13;;;;;;;;;;;12.40;99.90;;;;;;5076393;28;20328;-22
2022/11/15 10:27:40;;;;;;;;;;;12.40;99.90;;;;;;5076038;28;20362;-30
2022/11/15 10:30:14;;;;;;;;;;;12.40;99.90;;;;;;5075123;28;19908;-23
2022/11/15 10:32:41;;;;;;;;;;;12.40;99.90;;;;;;5076851;28;20023;-24
2022/11/15 10:35:26;;;;;;;;;;;12.40;99.90;;;;;;5075565;28;19912;-23
2022/11/15 10:38:03;;;;;;;;;;;12.40;99.90;;;;;;5075289;28;19934;-24
2022/11/15 10:40:29;;;;;;;;;;;12.40;99.90;;;;;;5075951;28;19939;-25
2022/11/15 10:43:21;;;;;;;;;;;12.40;99.90;;;;;;5075361;28;20286;-23
2022/11/15 10:45:47;;;;;;;;;;;12.40;99.90;;;;;;5072849;28;19912;-26
2022/11/15 10:48:13;;;;;;;;;;;12.40;99.90;;;;;;5057098;28;20314;-22
2022/11/15 10:50:42;;;;;;;;;;;12.40;99.90;;;;;;5075296;28;19908;-25
2022/11/15 10:53:20;;;;;;;;;;;12.40;99.90;;;;;;5075271;28;19919;-24
2022/11/15 10:55:50;;;;;;;;;;;12.40;99.90;;;;;;5074690;28;19920;-24
2022/11/15 10:58:41;;;;;;;;;;;12.30;99.90;;;;;;5074243;28;19912;-21
2022/11/15 11:01:13;;;;;;;;;;;12.40;99.90;;;;;;5072423;28;19912;-24
2022/11/15 11:03:39;;;;;;;;;;;12.40;99.90;;;;;;5075344;28;19966;-22
2022/11/15 11:06:07;;;;;;;;;;;12.40;99.90;;;;;;5074877;28;19908;-23
2022/11/15 11:08:33;;;;;;;;;;;12.40;99.90;;;;;;5073871;28;19908;-24
2022/11/15 11:11:00;;;;;;;;;;;12.40;99.90;;;;;;5074809;28;19930;-24
2022/11/15 11:13:27;;;;;;;;;;;12.40;99.90;;;;;;5074908;28;19999;-21
2022/11/15 11:15:59;;;;;;;;;;;12.30;99.90;;;;;;5076204;28;19909;-24
2022/11/15 11:18:28;;;;;;;;;;;12.40;99.90;;;;;;5056574;28;19908;-23
2022/11/15 11:21:02;;;;;;;;;;;12.40;99.90;;;;;;5074188;28;19943;-22
2022/11/15 11:23:28;;;;;;;;;;;12.40;99.90;;;;;;5056492;28;19909;-23
2022/11/15 11:26:17;;;;;;;;;;;12.40;99.90;;;;;;5074447;28;19962;-27
2022/11/15 11:28:42;;;;;;;;;;;12.40;99.90;;;;;;5045500;28;19962;-24
2022/11/15 11:31:08;;;;;;;;;;;12.40;99.90;;;;;;5074858;28;19912;-23
2022/11/15 11:33:53;;;;;;;;;;;12.40;99.90;;;;;;5056702;28;19912;-23
2022/11/15 11:36:24;;;;;;;;;;;12.40;99.90;;;;;;5074356;28;19908;-24
2022/11/15 11:38:59;;;;;;;;;;;12.40;99.90;;;;;;5074529;28;19908;-22
2022/11/15 11:41:43;;;;;;;;;;;12.40;99.90;;;;;;5055948;28;19954;-24
2022/11/15 11:44:27;;;;;;;;;;;12.40;99.90;;;;;;5074762;28;20320;-31
2022/11/15 11:47:00;;;;;;;;;;;12.40;99.90;;;;;;5074229;28;19935;-24
2022/11/15 11:49:37;;;;;;;;;;;12.40;99.90;;;;;;5073537;28;19909;-23
2022/11/15 11:52:28;;;;;;;;;;;12.40;99.90;;;;;;5074690;28;19920;-23
2022/11/15 11:55:13;;;;;;;;;;;12.40;99.90;;;;;;5073861;28;19919;-24
2022/11/15 11:57:44;;;;;;;;;;;12.40;99.90;;;;;;5073892;28;20374;-23
2022/11/15 12:00:18;;;;;;;;;;;12.40;99.90;;;;;;5074083;28;19991;-23
2022/11/15 12:02:50;;;;;;;;;;;12.40;99.90;;;;;;5073534;28;20005;-23
2022/11/15 12:05:33;;;;;;;;;;;12.40;99.90;;;;;;5074080;28;19909;-23
2022/11/15 12:08:29;;;;;;;;;;;12.40;99.90;;;;;;5072957;28;19919;-24
2022/11/15 12:11:00;;;;;;;;;;;12.40;99.90;;;;;;5060392;28;19912;-31
2022/11/15 12:13:26;;;;;;;;;;;12.40;99.90;;;;;;5073352;28;19917;-22
2022/11/15 12:16:05;;;;;;;;;;;12.40;99.90;;;;;;5073309;28;19969;-23
2022/11/15 12:18:30;;;;;;;;;;;12.40;99.90;;;;;;5073224;28;20433;-21
2022/11/15 12:20:58;;;;;;;;;;;12.40;99.90;;;;;;5073711;28;19962;-27
2022/11/15 12:23:28;;;;;;;;;;;12.40;99.90;;;;;;5072541;28;19955;-24
2022/11/15 12:25:57;;;;;;;;;;;12.40;99.90;;;;;;5073413;28;20343;-23
2022/11/15 12:28:38;;;;;;;;;;;12.40;99.90;;;;;;5072540;28;20290;-22
2022/11/15 12:31:03;;;;;;;;;;;12.40;99.90;;;;;;5073061;28;19908;-25
2022/11/15 12:33:30;;;;;;;;;;;12.40;99.90;;;;;;5073780;28;20423;-25
2022/11/15 12:36:01;;;;;;;;;;;12.40;99.90;;;;;;5074002;28;19908;-23
2022/11/15 12:38:45;;;;;;;;;;;12.40;99.90;;;;;;5071037;28;19919;-25
2022/11/15 12:41:17;;;;;;;;;;;12.40;99.90;;;;;;5072760;28;19973;-25
2022/11/15 12:43:44;;;;;;;;;;;12.40;99.90;;;;;;5072250;28;19908;-24
2022/11/15 12:46:19;;;;;;;;;;;12.40;99.90;;;;;;5072935;28;20344;-34
2022/11/15 12:48:46;;;;;;;;;;;12.40;99.90;;;;;;5072387;28;19936;-23
2022/11/15 12:51:12;;;;;;;;;;;12.40;99.90;;;;;;5072487;28;19912;-24
2022/11/15 12:53:38;;;;;;;;;;;12.50;99.90;;;;;;5074274;28;19935;-22
2022/11/15 12:56:09;;;;;;;;;;;12.50;99.90;;;;;;5072454;28;20374;-22
2022/11/15 12:58:48;;;;;;;;;;;12.60;99.90;;;;;;5072521;28;19912;-23
2022/11/15 13:01:32;;;;;;;;;;;12.60;99.90;;;;;;5072767;28;19908;-23
2022/11/15 13:04:16;;;;;;;;;;;12.60;99.90;;;;;;5072694;28;20007;-23
2022/11/15 13:06:43;;;;;;;;;;;12.70;99.90;;;;;;5074375;28;19920;-21
2022/11/15 13:09:27;;;;;;;;;;;12.70;99.90;;;;;;5071439;28;19908;-23
2022/11/15 13:11:53;;;;;;;;;;;12.70;99.90;;;;;;5073324;28;19912;-23
2022/11/15 13:14:37;;;;;;;;;;;12.70;99.90;;;;;;5073130;28;19909;-21
2022/11/15 13:17:12;;;;;;;;;;;12.70;99.90;;;;;;5072195;28;19919;-21
2022/11/15 13:19:38;;;;;;;;;;;12.70;99.90;;;;;;5072263;28;19953;-23
2022/11/15 13:24:54;;;;;;;;;;;12.70;99.90;;;;;;5073191;28;20282;-27
2022/11/15 13:27:19;;;;;;;;;;;12.70;99.90;;;;;;5072639;28;19908;-22
2022/11/15 13:29:45;;;;;;;;;;;12.70;99.90;;;;;;5072304;28;20282;-24
2022/11/15 13:32:15;;;;;;;;;;;12.70;99.90;;;;;;5072845;28;19917;-26
2022/11/15 13:34:46;;;;;;;;;;;12.70;99.90;;;;;;5055594;28;19912;-23
2022/11/15 13:37:31;;;;;;;;;;;12.70;99.90;;;;;;5072952;28;19909;-23
2022/11/15 13:40:09;;;;;;;;;;;12.70;99.90;;;;;;5072523;28;19985;-22
2022/11/15 13:42:35;;;;;;;;;;;12.70;99.90;;;;;;5071279;28;20389;-27
2022/11/15 13:45:02;;;;;;;;;;;12.70;99.90;;;;;;5072477;28;19912;-21
2022/11/15 13:47:28;;;;;;;;;;;12.70;99.90;;;;;;5055053;28;20417;-23
2022/11/15 13:49:56;;;;;;;;;;;12.70;99.90;;;;;;5076639;28;19954;-23
2022/11/15 13:52:24;;;;;;;;;;;12.80;99.90;;;;;;5076878;28;19920;-23
2022/11/15 13:54:52;;;;;;;;;;;12.70;99.90;;;;;;5076340;28;19913;-22
2022/11/15 13:57:18;;;;;;;;;;;12.70;99.90;;;;;;5077479;28;20420;-21
2022/11/15 13:59:46;;;;;;;;;;;12.70;99.90;;;;;;5075769;28;19908;-26
2022/11/15 14:02:24;;;;;;;;;;;12.70;99.90;;;;;;5075711;28;19908;-29
2022/11/15 14:04:56;;;;;;;;;;;12.70;99.90;;;;;;5076109;28;20370;-23
2022/11/15 14:07:24;;;;;;;;;;;12.70;99.90;;;;;;5075878;28;20320;-21
2022/11/15 14:09:50;;;;;;;;;;;12.70;99.90;;;;;;5057949;28;19909;-23
2022/11/15 14:12:32;;;;;;;;;;;12.70;99.90;;;;;;5075340;28;20410;-30
2022/11/15 14:14:58;;;;;;;;;;;12.70;99.90;;;;;;5075532;28;19920;-31
2022/11/15 14:17:30;;;;;;;;;;;12.70;99.90;;;;;;5076925;28;19909;-26
2022/11/15 14:19:56;;;;;;;;;;;12.70;99.90;;;;;;5075497;28;20346;-23
2022/11/15 14:22:25;;;;;;;;;;;12.70;99.90;;;;;;5076488;28;19913;-25
2022/11/15 14:25:13;;;;;;;;;;;12.70;99.90;;;;;;5076039;28;19913;-24
2022/11/15 14:27:39;;;;;;;;;;;12.70;99.90;;;;;;5075636;28;19912;-21
2022/11/15 14:30:04;;;;;;;;;;;12.70;99.90;;;;;;5075588;28;19909;-22
2022/11/15 14:32:41;;;;;;;;;;;12.70;99.90;;;;;;5075804;28;19966;-33
2022/11/15 14:35:12;;;;;;;;;;;12.70;99.90;;;;;;5075434;28;19930;-23
2022/11/15 14:37:38;;;;;;;;;;;12.70;99.90;;;;;;5074872;28;19923;-22
2022/11/15 14:40:05;;;;;;;;;;;12.70;99.90;;;;;;5057032;28;19912;-22
2022/11/15 14:42:32;;;;;;;;;;;12.70;99.90;;;;;;5075163;28;19909;-26
2022/11/15 14:44:58;;;;;;;;;;;12.70;99.90;;;;;;5057550;28;20006;-22